sensor_id;sensor_type;location;lat;lon;timestamp;temperature;humidity
10692;DHT22;5396;50.950;6.988;2023-12-07T00:01:10;1.00;99.90
10692;DHT22;5396;50.950;6.988;2023-12-07T00:03:35;1.00;99.90
10692;DHT22;5396;50.950;6.988;2023-12-07T00:06:01;0.90;99.90
10692;DHT22;5396;50.950;6.988;2023-12-07T00:08:26;0.90;99.90
10692;DHT22;5396;50.950;6.988;2023-12-07T00:10:52;0.90;99.90
10692;DHT22;5396;50.950;6.988;2023-12-07T00:13:17;0.80;99.90
10692;DHT22;5396;50.950;6.988;2023-12-07T00:15:43;0.80;99.90
10692;DHT22;5396;50.950;6.988;2023-12-07T00:18:08;0.80;99.90
10692;DHT22;5396;50.950;6.988;2023-12-07T00:20:35;0.70;99.90
10692;DHT22;5396;50.950;6.988;2023-12-07T00:23:02;0.70;99.90
10692;DHT22;5396;50.950;6.988;2023-12-07T00:25:27;0.70;99.90
10692;DHT22;5396;50.950;6.988;2023-12-07T00:27:53;0.60;99.90
10692;DHT22;5396;50.950;6.988;2023-12-07T00:30:18;0.60;99.90
10692;DHT22;5396;50.950;6.988;2023-12-07T00:32:44;0.60;99.90
10692;DHT22;5396;50.950;6.988;2023-12-07T00:35:09;0.50;99.90
10692;DHT22;5396;50.950;6.988;2023-12-07T00:37:35;0.50;99.90
10692;DHT22;5396;50.950;6.988;2023-12-07T00:40:01;0.50;99.90
10692;DHT22;5396;50.950;6.988;2023-12-07T00:42:27;0.50;99.90
10692;DHT22;5396;50.950;6.988;2023-12-07T00:44:52;0.60;99.90
10692;DHT22;5396;50.950;6.988;2023-12-07T00:47:18;0.70;99.90
10692;DHT22;5396;50.950;6.988;2023-12-07T00:49:43;0.70;99.90
10692;DHT22;5396;50.950;6.988;2023-12-07T00:52:09;0.70;99.90
10692;DHT22;5396;50.950;6.988;2023-12-07T00:54:34;0.70;99.90
10692;DHT22;5396;50.950;6.988;2023-12-07T00:57:00;0.60;99.90
10692;DHT22;5396;50.950;6.988;2023-12-07T00:59:25;0.60;99.90
10692;DHT22;5396;50.950;6.988;2023-12-07T01:01:51;0.60;99.90
10692;DHT22;5396;50.950;6.988;2023-12-07T01:04:16;0.60;99.90
10692;DHT22;5396;50.950;6.988;2023-12-07T01:06:43;0.60;99.90
10692;DHT22;5396;50.950;6.988;2023-12-07T01:09:08;0.50;99.90
10692;DHT22;5396;50.950;6.988;2023-12-07T01:11:39;0.50;99.90
10692;DHT22;5396;50.950;6.988;2023-12-07T01:14:05;0.50;99.90
10692;DHT22;5396;50.950;6.988;2023-12-07T01:16:31;0.50;99.90
10692;DHT22;5396;50.950;6.988;2023-12-07T01:18:56;0.50;99.90
10692;DHT22;5396;50.950;6.988;2023-12-07T01:21:23;0.40;99.90
10692;DHT22;5396;50.950;6.988;2023-12-07T01:23:48;0.40;99.90
10692;DHT22;5396;50.950;6.988;2023-12-07T01:26:14;0.40;99.90
10692;DHT22;5396;50.950;6.988;2023-12-07T01:28:39;0.40;99.90
10692;DHT22;5396;50.950;6.988;2023-12-07T01:31:05;0.40;99.90
10692;DHT22;5396;50.950;6.988;2023-12-07T01:33:30;0.40;99.90
10692;DHT22;5396;50.950;6.988;2023-12-07T01:35:56;0.40;99.90
10692;DHT22;5396;50.950;6.988;2023-12-07T01:38:22;0.30;99.90
10692;DHT22;5396;50.950;6.988;2023-12-07T01:40:48;0.30;99.90
10692;DHT22;5396;50.950;6.988;2023-12-07T01:43:14;0.40;99.90
10692;DHT22;5396;50.950;6.988;2023-12-07T01:45:39;0.30;99.90
10692;DHT22;5396;50.950;6.988;2023-12-07T01:48:05;0.30;99.90
10692;DHT22;5396;50.950;6.988;2023-12-07T01:50:31;0.30;99.90
10692;DHT22;5396;50.950;6.988;2023-12-07T01:53:00;0.30;99.90
10692;DHT22;5396;50.950;6.988;2023-12-07T01:55:26;0.30;99.90
10692;DHT22;5396;50.950;6.988;2023-12-07T01:57:52;0.40;99.90
10692;DHT22;5396;50.950;6.988;2023-12-07T02:00:18;0.40;99.90
10692;DHT22;5396;50.950;6.988;2023-12-07T02:02:44;0.40;99.90
10692;DHT22;5396;50.950;6.988;2023-12-07T02:05:11;0.30;99.90
10692;DHT22;5396;50.950;6.988;2023-12-07T02:07:37;0.30;99.90
10692;DHT22;5396;50.950;6.988;2023-12-07T02:10:04;0.30;99.90
10692;DHT22;5396;50.950;6.988;2023-12-07T02:12:30;0.30;99.90
10692;DHT22;5396;50.950;6.988;2023-12-07T02:14:55;0.40;99.90
10692;DHT22;5396;50.950;6.988;2023-12-07T02:17:24;0.50;99.90
10692;DHT22;5396;50.950;6.988;2023-12-07T02:19:52;0.60;99.90
10692;DHT22;5396;50.950;6.988;2023-12-07T02:22:32;0.70;99.90
10692;DHT22;5396;50.950;6.988;2023-12-07T02:25:04;0.80;99.90
10692;DHT22;5396;50.950;6.988;2023-12-07T02:27:41;0.90;99.90
10692;DHT22;5396;50.950;6.988;2023-12-07T02:30:08;0.90;99.90
10692;DHT22;5396;50.950;6.988;2023-12-07T02:32:35;1.00;99.90
10692;DHT22;5396;50.950;6.988;2023-12-07T02:35:00;1.10;99.90
10692;DHT22;5396;50.950;6.988;2023-12-07T02:37:27;1.30;99.90
10692;DHT22;5396;50.950;6.988;2023-12-07T02:39:52;1.30;99.90
10692;DHT22;5396;50.950;6.988;2023-12-07T02:42:19;1.40;99.90
10692;DHT22;5396;50.950;6.988;2023-12-07T02:44:46;1.40;99.90
10692;DHT22;5396;50.950;6.988;2023-12-07T02:47:11;1.50;99.90
10692;DHT22;5396;50.950;6.988;2023-12-07T02:49:37;1.50;99.90
10692;DHT22;5396;50.950;6.988;2023-12-07T02:52:02;1.50;99.90
10692;DHT22;5396;50.950;6.988;2023-12-07T02:54:28;1.50;99.90
10692;DHT22;5396;50.950;6.988;2023-12-07T02:56:54;1.50;99.90
10692;DHT22;5396;50.950;6.988;2023-12-07T02:59:19;1.50;99.90
10692;DHT22;5396;50.950;6.988;2023-12-07T03:01:45;1.50;99.90
10692;DHT22;5396;50.950;6.988;2023-12-07T03:04:10;1.50;99.90
10692;DHT22;5396;50.950;6.988;2023-12-07T03:06:35;1.60;99.90
10692;DHT22;5396;50.950;6.988;2023-12-07T03:09:01;1.60;99.90
10692;DHT22;5396;50.950;6.988;2023-12-07T03:11:27;1.70;99.90
10692;DHT22;5396;50.950;6.988;2023-12-07T03:13:52;1.70;99.90
10692;DHT22;5396;50.950;6.988;2023-12-07T03:16:18;1.80;99.90
10692;DHT22;5396;50.950;6.988;2023-12-07T03:18:43;1.90;99.90
10692;DHT22;5396;50.950;6.988;2023-12-07T03:21:09;1.90;99.90
10692;DHT22;5396;50.950;6.988;2023-12-07T03:23:35;1.90;99.90
10692;DHT22;5396;50.950;6.988;2023-12-07T03:26:00;2.00;99.90
10692;DHT22;5396;50.950;6.988;2023-12-07T03:28:26;2.00;99.90
10692;DHT22;5396;50.950;6.988;2023-12-07T03:30:51;2.00;99.90
10692;DHT22;5396;50.950;6.988;2023-12-07T03:33:17;2.10;99.90
10692;DHT22;5396;50.950;6.988;2023-12-07T03:35:42;2.10;99.90
10692;DHT22;5396;50.950;6.988;2023-12-07T03:38:08;2.10;99.90
10692;DHT22;5396;50.950;6.988;2023-12-07T03:40:33;2.20;99.90
10692;DHT22;5396;50.950;6.988;2023-12-07T03:42:59;2.30;99.90
10692;DHT22;5396;50.950;6.988;2023-12-07T03:45:24;2.30;99.90
10692;DHT22;5396;50.950;6.988;2023-12-07T03:47:50;2.40;99.90
10692;DHT22;5396;50.950;6.988;2023-12-07T03:50:15;2.40;99.90
10692;DHT22;5396;50.950;6.988;2023-12-07T03:52:41;2.40;99.90
10692;DHT22;5396;50.950;6.988;2023-12-07T03:55:06;2.40;99.90
10692;DHT22;5396;50.950;6.988;2023-12-07T03:57:32;2.40;99.90
10692;DHT22;5396;50.950;6.988;2023-12-07T03:59:57;2.40;99.90
10692;DHT22;5396;50.950;6.988;2023-12-07T04:02:23;2.40;99.90
10692;DHT22;5396;50.950;6.988;2023-12-07T04:04:49;2.40;99.90
10692;DHT22;5396;50.950;6.988;2023-12-07T04:07:15;2.50;99.90
10692;DHT22;5396;50.950;6.988;2023-12-07T04:09:40;2.50;99.90
10692;DHT22;5396;50.950;6.988;2023-12-07T04:12:06;2.50;99.90
10692;DHT22;5396;50.950;6.988;2023-12-07T04:14:31;2.50;99.90
10692;DHT22;5396;50.950;6.988;2023-12-07T04:16:57;2.50;99.90
10692;DHT22;5396;50.950;6.988;2023-12-07T04:19:22;2.50;99.90
10692;DHT22;5396;50.950;6.988;2023-12-07T04:21:48;2.50;99.90
10692;DHT22;5396;50.950;6.988;2023-12-07T04:24:13;2.50;99.90
10692;DHT22;5396;50.950;6.988;2023-12-07T04:26:39;2.50;99.90
10692;DHT22;5396;50.950;6.988;2023-12-07T04:29:04;2.50;99.90
10692;DHT22;5396;50.950;6.988;2023-12-07T04:31:29;2.50;99.90
10692;DHT22;5396;50.950;6.988;2023-12-07T04:33:55;2.50;99.90
10692;DHT22;5396;50.950;6.988;2023-12-07T04:36:20;2.50;99.90
10692;DHT22;5396;50.950;6.988;2023-12-07T04:38:46;2.50;99.90
10692;DHT22;5396;50.950;6.988;2023-12-07T04:41:11;2.50;99.90
10692;DHT22;5396;50.950;6.988;2023-12-07T04:43:37;2.50;99.90
10692;DHT22;5396;50.950;6.988;2023-12-07T04:46:02;2.50;99.90
10692;DHT22;5396;50.950;6.988;2023-12-07T04:48:29;2.40;99.90
10692;DHT22;5396;50.950;6.988;2023-12-07T04:50:54;2.40;99.90
10692;DHT22;5396;50.950;6.988;2023-12-07T04:53:19;2.40;99.90
10692;DHT22;5396;50.950;6.988;2023-12-07T04:55:45;2.50;99.90
10692;DHT22;5396;50.950;6.988;2023-12-07T04:58:15;2.50;99.90
10692;DHT22;5396;50.950;6.988;2023-12-07T05:00:41;2.50;99.90
10692;DHT22;5396;50.950;6.988;2023-12-07T05:03:06;2.60;99.90
10692;DHT22;5396;50.950;6.988;2023-12-07T05:05:32;2.60;99.90
10692;DHT22;5396;50.950;6.988;2023-12-07T05:07:57;2.60;99.90
10692;DHT22;5396;50.950;6.988;2023-12-07T05:10:23;2.60;99.90
10692;DHT22;5396;50.950;6.988;2023-12-07T05:12:48;2.70;99.90
10692;DHT22;5396;50.950;6.988;2023-12-07T05:15:13;2.70;99.90
10692;DHT22;5396;50.950;6.988;2023-12-07T05:17:39;2.70;99.90
10692;DHT22;5396;50.950;6.988;2023-12-07T05:20:05;2.70;99.90
10692;DHT22;5396;50.950;6.988;2023-12-07T05:22:30;2.70;99.90
10692;DHT22;5396;50.950;6.988;2023-12-07T05:24:56;2.60;99.90
10692;DHT22;5396;50.950;6.988;2023-12-07T05:27:22;2.70;99.90
10692;DHT22;5396;50.950;6.988;2023-12-07T05:29:47;2.60;99.90
10692;DHT22;5396;50.950;6.988;2023-12-07T05:32:13;2.60;99.90
10692;DHT22;5396;50.950;6.988;2023-12-07T05:34:38;2.60;99.90
10692;DHT22;5396;50.950;6.988;2023-12-07T05:37:04;2.50;99.90
10692;DHT22;5396;50.950;6.988;2023-12-07T05:39:29;2.40;99.90
10692;DHT22;5396;50.950;6.988;2023-12-07T05:41:55;2.30;99.90
10692;DHT22;5396;50.950;6.988;2023-12-07T05:44:21;2.20;99.90
10692;DHT22;5396;50.950;6.988;2023-12-07T05:46:48;2.10;99.90
10692;DHT22;5396;50.950;6.988;2023-12-07T05:49:13;2.10;99.90
10692;DHT22;5396;50.950;6.988;2023-12-07T05:51:39;2.00;99.90
10692;DHT22;5396;50.950;6.988;2023-12-07T05:54:05;2.00;99.90
10692;DHT22;5396;50.950;6.988;2023-12-07T05:56:31;1.90;99.90
10692;DHT22;5396;50.950;6.988;2023-12-07T05:58:56;1.80;99.90
10692;DHT22;5396;50.950;6.988;2023-12-07T06:01:22;1.80;99.90
10692;DHT22;5396;50.950;6.988;2023-12-07T06:03:47;1.80;99.90
10692;DHT22;5396;50.950;6.988;2023-12-07T06:06:13;1.70;99.90
10692;DHT22;5396;50.950;6.988;2023-12-07T06:08:39;1.70;99.90
10692;DHT22;5396;50.950;6.988;2023-12-07T06:11:04;1.70;99.90
10692;DHT22;5396;50.950;6.988;2023-12-07T06:13:30;1.70;99.90
10692;DHT22;5396;50.950;6.988;2023-12-07T06:15:56;1.70;99.90
10692;DHT22;5396;50.950;6.988;2023-12-07T06:18:22;1.70;99.90
10692;DHT22;5396;50.950;6.988;2023-12-07T06:20:47;1.60;99.90
10692;DHT22;5396;50.950;6.988;2023-12-07T06:23:13;1.70;99.90
10692;DHT22;5396;50.950;6.988;2023-12-07T06:25:38;1.60;99.90
10692;DHT22;5396;50.950;6.988;2023-12-07T06:28:04;1.60;99.90
10692;DHT22;5396;50.950;6.988;2023-12-07T06:30:29;1.70;99.90
10692;DHT22;5396;50.950;6.988;2023-12-07T06:32:55;1.60;99.90
10692;DHT22;5396;50.950;6.988;2023-12-07T06:35:20;1.70;99.90
10692;DHT22;5396;50.950;6.988;2023-12-07T06:37:46;1.60;99.90
10692;DHT22;5396;50.950;6.988;2023-12-07T06:40:12;1.60;99.90
10692;DHT22;5396;50.950;6.988;2023-12-07T06:42:37;1.50;99.90
10692;DHT22;5396;50.950;6.988;2023-12-07T06:45:03;1.50;99.90
10692;DHT22;5396;50.950;6.988;2023-12-07T06:47:29;1.50;99.90
10692;DHT22;5396;50.950;6.988;2023-12-07T06:49:54;1.50;99.90
10692;DHT22;5396;50.950;6.988;2023-12-07T06:52:21;1.50;99.90
10692;DHT22;5396;50.950;6.988;2023-12-07T06:54:46;1.50;99.90
10692;DHT22;5396;50.950;6.988;2023-12-07T06:57:12;1.40;99.90
10692;DHT22;5396;50.950;6.988;2023-12-07T06:59:37;1.40;99.90
10692;DHT22;5396;50.950;6.988;2023-12-07T07:02:03;1.40;99.90
10692;DHT22;5396;50.950;6.988;2023-12-07T07:04:28;1.50;99.90
10692;DHT22;5396;50.950;6.988;2023-12-07T07:06:55;1.40;99.90
10692;DHT22;5396;50.950;6.988;2023-12-07T07:09:20;1.40;99.90
10692;DHT22;5396;50.950;6.988;2023-12-07T07:11:47;1.50;99.90
10692;DHT22;5396;50.950;6.988;2023-12-07T07:14:12;1.50;99.90
10692;DHT22;5396;50.950;6.988;2023-12-07T07:16:38;1.40;99.90
10692;DHT22;5396;50.950;6.988;2023-12-07T07:19:03;1.40;99.90
10692;DHT22;5396;50.950;6.988;2023-12-07T07:21:29;1.40;99.90
10692;DHT22;5396;50.950;6.988;2023-12-07T07:23:54;1.30;99.90
10692;DHT22;5396;50.950;6.988;2023-12-07T07:26:20;1.30;99.90
10692;DHT22;5396;50.950;6.988;2023-12-07T07:28:45;1.30;99.90
10692;DHT22;5396;50.950;6.988;2023-12-07T07:31:11;1.30;99.90
10692;DHT22;5396;50.950;6.988;2023-12-07T07:33:37;1.20;99.90
10692;DHT22;5396;50.950;6.988;2023-12-07T07:36:03;1.30;99.90
10692;DHT22;5396;50.950;6.988;2023-12-07T07:38:29;1.20;99.90
10692;DHT22;5396;50.950;6.988;2023-12-07T07:40:54;1.30;99.90
10692;DHT22;5396;50.950;6.988;2023-12-07T07:43:20;1.30;99.90
10692;DHT22;5396;50.950;6.988;2023-12-07T07:45:45;1.30;99.90
10692;DHT22;5396;50.950;6.988;2023-12-07T07:48:11;1.30;99.90
10692;DHT22;5396;50.950;6.988;2023-12-07T07:50:37;1.30;99.90
10692;DHT22;5396;50.950;6.988;2023-12-07T07:53:03;1.30;99.90
10692;DHT22;5396;50.950;6.988;2023-12-07T07:55:29;1.30;99.90
10692;DHT22;5396;50.950;6.988;2023-12-07T07:57:55;1.30;99.90
10692;DHT22;5396;50.950;6.988;2023-12-07T08:00:20;1.20;99.90
10692;DHT22;5396;50.950;6.988;2023-12-07T08:02:46;1.30;99.90
10692;DHT22;5396;50.950;6.988;2023-12-07T08:05:12;1.30;99.90
10692;DHT22;5396;50.950;6.988;2023-12-07T08:07:38;1.30;99.90
10692;DHT22;5396;50.950;6.988;2023-12-07T08:10:04;1.30;99.90
10692;DHT22;5396;50.950;6.988;2023-12-07T08:12:30;1.40;99.90
10692;DHT22;5396;50.950;6.988;2023-12-07T08:14:55;1.40;99.90
10692;DHT22;5396;50.950;6.988;2023-12-07T08:17:22;1.30;99.90
10692;DHT22;5396;50.950;6.988;2023-12-07T08:19:48;1.30;99.90
10692;DHT22;5396;50.950;6.988;2023-12-07T08:22:13;1.30;99.90
10692;DHT22;5396;50.950;6.988;2023-12-07T08:24:39;1.40;99.90
10692;DHT22;5396;50.950;6.988;2023-12-07T08:27:05;1.40;99.90
10692;DHT22;5396;50.950;6.988;2023-12-07T08:29:30;1.40;99.90
10692;DHT22;5396;50.950;6.988;2023-12-07T08:31:56;1.40;99.90
10692;DHT22;5396;50.950;6.988;2023-12-07T08:34:21;1.40;99.90
10692;DHT22;5396;50.950;6.988;2023-12-07T08:36:47;1.40;99.90
10692;DHT22;5396;50.950;6.988;2023-12-07T08:39:13;1.50;99.90
10692;DHT22;5396;50.950;6.988;2023-12-07T08:41:38;1.60;99.90
10692;DHT22;5396;50.950;6.988;2023-12-07T08:44:04;1.60;99.90
10692;DHT22;5396;50.950;6.988;2023-12-07T08:46:30;1.60;99.90
10692;DHT22;5396;50.950;6.988;2023-12-07T08:48:55;1.60;99.90
10692;DHT22;5396;50.950;6.988;2023-12-07T08:51:22;1.60;99.90
10692;DHT22;5396;50.950;6.988;2023-12-07T08:53:47;1.60;99.90
10692;DHT22;5396;50.950;6.988;2023-12-07T08:56:13;1.60;99.90
10692;DHT22;5396;50.950;6.988;2023-12-07T08:58:39;1.70;99.90
10692;DHT22;5396;50.950;6.988;2023-12-07T09:01:04;1.60;99.90
10692;DHT22;5396;50.950;6.988;2023-12-07T09:03:30;1.70;99.90
10692;DHT22;5396;50.950;6.988;2023-12-07T09:05:57;1.70;99.90
10692;DHT22;5396;50.950;6.988;2023-12-07T09:08:22;1.70;99.90
10692;DHT22;5396;50.950;6.988;2023-12-07T09:10:48;1.70;99.90
10692;DHT22;5396;50.950;6.988;2023-12-07T09:13:15;1.70;99.90
10692;DHT22;5396;50.950;6.988;2023-12-07T09:15:41;1.70;99.90
10692;DHT22;5396;50.950;6.988;2023-12-07T09:18:08;1.80;99.90
10692;DHT22;5396;50.950;6.988;2023-12-07T09:20:33;1.80;99.90
10692;DHT22;5396;50.950;6.988;2023-12-07T09:22:59;1.80;99.90
10692;DHT22;5396;50.950;6.988;2023-12-07T09:25:24;1.80;99.90
10692;DHT22;5396;50.950;6.988;2023-12-07T09:27:53;1.90;99.90
10692;DHT22;5396;50.950;6.988;2023-12-07T09:30:18;1.90;99.90
10692;DHT22;5396;50.950;6.988;2023-12-07T09:32:44;2.00;99.90
10692;DHT22;5396;50.950;6.988;2023-12-07T09:35:10;2.00;99.90
10692;DHT22;5396;50.950;6.988;2023-12-07T09:37:40;2.10;99.90
10692;DHT22;5396;50.950;6.988;2023-12-07T09:40:05;2.10;99.90
10692;DHT22;5396;50.950;6.988;2023-12-07T09:42:32;2.10;99.90
10692;DHT22;5396;50.950;6.988;2023-12-07T09:44:58;2.10;99.90
10692;DHT22;5396;50.950;6.988;2023-12-07T09:47:25;2.10;99.90
10692;DHT22;5396;50.950;6.988;2023-12-07T09:49:51;2.10;99.90
10692;DHT22;5396;50.950;6.988;2023-12-07T09:52:17;2.10;99.90
10692;DHT22;5396;50.950;6.988;2023-12-07T09:54:42;2.10;99.90
10692;DHT22;5396;50.950;6.988;2023-12-07T09:57:09;2.20;99.90
10692;DHT22;5396;50.950;6.988;2023-12-07T09:59:35;2.20;99.90
10692;DHT22;5396;50.950;6.988;2023-12-07T10:02:00;2.30;99.90
10692;DHT22;5396;50.950;6.988;2023-12-07T10:04:26;2.30;99.90
10692;DHT22;5396;50.950;6.988;2023-12-07T10:06:52;2.40;99.90
10692;DHT22;5396;50.950;6.988;2023-12-07T10:09:18;2.40;99.90
10692;DHT22;5396;50.950;6.988;2023-12-07T10:11:49;2.40;99.90
10692;DHT22;5396;50.950;6.988;2023-12-07T10:14:15;2.40;99.90
10692;DHT22;5396;50.950;6.988;2023-12-07T10:16:53;2.50;99.90
10692;DHT22;5396;50.950;6.988;2023-12-07T10:19:22;2.60;99.90
10692;DHT22;5396;50.950;6.988;2023-12-07T10:21:48;2.70;99.90
10692;DHT22;5396;50.950;6.988;2023-12-07T10:24:15;2.80;99.90
10692;DHT22;5396;50.950;6.988;2023-12-07T10:26:41;2.90;99.90
10692;DHT22;5396;50.950;6.988;2023-12-07T10:29:06;3.00;99.90
10692;DHT22;5396;50.950;6.988;2023-12-07T10:31:32;3.00;99.90
10692;DHT22;5396;50.950;6.988;2023-12-07T10:33:58;3.10;99.90
10692;DHT22;5396;50.950;6.988;2023-12-07T10:36:24;3.10;99.90
10692;DHT22;5396;50.950;6.988;2023-12-07T10:38:49;3.20;99.90
10692;DHT22;5396;50.950;6.988;2023-12-07T10:41:18;3.10;99.90
10692;DHT22;5396;50.950;6.988;2023-12-07T10:43:44;3.10;99.90
10692;DHT22;5396;50.950;6.988;2023-12-07T10:46:14;3.10;99.90
10692;DHT22;5396;50.950;6.988;2023-12-07T10:48:41;3.10;99.90
10692;DHT22;5396;50.950;6.988;2023-12-07T10:51:08;3.20;99.90
10692;DHT22;5396;50.950;6.988;2023-12-07T10:53:37;3.20;99.90
10692;DHT22;5396;50.950;6.988;2023-12-07T10:56:05;3.40;99.90
10692;DHT22;5396;50.950;6.988;2023-12-07T10:58:33;3.50;99.90
10692;DHT22;5396;50.950;6.988;2023-12-07T11:00:59;3.70;99.90
10692;DHT22;5396;50.950;6.988;2023-12-07T11:03:26;3.90;99.90
10692;DHT22;5396;50.950;6.988;2023-12-07T11:05:55;3.90;99.90
10692;DHT22;5396;50.950;6.988;2023-12-07T11:11:00;4.10;99.90
10692;DHT22;5396;50.950;6.988;2023-12-07T11:13:29;4.20;99.90
10692;DHT22;5396;50.950;6.988;2023-12-07T11:15:55;4.20;99.90
10692;DHT22;5396;50.950;6.988;2023-12-07T11:18:21;4.30;99.90
10692;DHT22;5396;50.950;6.988;2023-12-07T11:20:46;4.30;99.90
10692;DHT22;5396;50.950;6.988;2023-12-07T11:23:18;4.20;99.90
10692;DHT22;5396;50.950;6.988;2023-12-07T11:25:45;4.10;99.90
10692;DHT22;5396;50.950;6.988;2023-12-07T11:28:11;4.10;99.90
10692;DHT22;5396;50.950;6.988;2023-12-07T11:30:37;4.00;99.90
10692;DHT22;5396;50.950;6.988;2023-12-07T11:33:03;3.90;99.90
10692;DHT22;5396;50.950;6.988;2023-12-07T11:35:29;3.80;99.90
10692;DHT22;5396;50.950;6.988;2023-12-07T11:38:01;3.90;99.90
10692;DHT22;5396;50.950;6.988;2023-12-07T11:40:38;4.00;99.90
10692;DHT22;5396;50.950;6.988;2023-12-07T11:43:05;4.10;99.90
10692;DHT22;5396;50.950;6.988;2023-12-07T11:45:38;4.30;99.90
10692;DHT22;5396;50.950;6.988;2023-12-07T11:48:13;4.40;99.90
10692;DHT22;5396;50.950;6.988;2023-12-07T11:50:58;4.40;99.90
10692;DHT22;5396;50.950;6.988;2023-12-07T11:53:24;4.40;99.90
10692;DHT22;5396;50.950;6.988;2023-12-07T11:55:50;4.20;99.90
10692;DHT22;5396;50.950;6.988;2023-12-07T11:58:16;4.10;99.90
10692;DHT22;5396;50.950;6.988;2023-12-07T12:00:41;4.00;99.90
10692;DHT22;5396;50.950;6.988;2023-12-07T12:03:07;4.00;99.90
10692;DHT22;5396;50.950;6.988;2023-12-07T12:05:32;3.90;99.90
10692;DHT22;5396;50.950;6.988;2023-12-07T12:07:58;3.80;99.90
10692;DHT22;5396;50.950;6.988;2023-12-07T12:10:23;3.80;99.90
10692;DHT22;5396;50.950;6.988;2023-12-07T12:12:53;3.80;99.90
10692;DHT22;5396;50.950;6.988;2023-12-07T12:15:20;3.90;99.90
10692;DHT22;5396;50.950;6.988;2023-12-07T12:17:45;4.00;99.90
10692;DHT22;5396;50.950;6.988;2023-12-07T12:20:11;4.10;99.90
10692;DHT22;5396;50.950;6.988;2023-12-07T12:22:42;4.10;99.90
10692;DHT22;5396;50.950;6.988;2023-12-07T12:25:08;4.10;99.90
10692;DHT22;5396;50.950;6.988;2023-12-07T12:27:33;4.20;99.90
10692;DHT22;5396;50.950;6.988;2023-12-07T12:29:59;4.20;99.90
10692;DHT22;5396;50.950;6.988;2023-12-07T12:32:25;4.20;99.90
10692;DHT22;5396;50.950;6.988;2023-12-07T12:34:52;4.20;99.90
10692;DHT22;5396;50.950;6.988;2023-12-07T12:37:18;4.30;99.90
10692;DHT22;5396;50.950;6.988;2023-12-07T12:39:44;4.40;99.90
10692;DHT22;5396;50.950;6.988;2023-12-07T12:42:09;4.40;99.90
10692;DHT22;5396;50.950;6.988;2023-12-07T12:44:36;4.40;99.90
10692;DHT22;5396;50.950;6.988;2023-12-07T12:47:07;4.50;99.90
10692;DHT22;5396;50.950;6.988;2023-12-07T12:49:37;4.50;99.90
10692;DHT22;5396;50.950;6.988;2023-12-07T12:52:03;4.60;99.90
10692;DHT22;5396;50.950;6.988;2023-12-07T12:54:32;4.60;99.90
10692;DHT22;5396;50.950;6.988;2023-12-07T12:56:59;4.60;99.90
10692;DHT22;5396;50.950;6.988;2023-12-07T12:59:25;4.50;99.90
10692;DHT22;5396;50.950;6.988;2023-12-07T13:01:50;4.60;99.90
10692;DHT22;5396;50.950;6.988;2023-12-07T13:04:16;4.60;99.90
10692;DHT22;5396;50.950;6.988;2023-12-07T13:06:42;4.60;99.90
10692;DHT22;5396;50.950;6.988;2023-12-07T13:09:08;4.60;99.90
10692;DHT22;5396;50.950;6.988;2023-12-07T13:11:34;4.60;99.90
10692;DHT22;5396;50.950;6.988;2023-12-07T13:13:59;4.60;99.90
10692;DHT22;5396;50.950;6.988;2023-12-07T13:16:31;4.60;99.90
10692;DHT22;5396;50.950;6.988;2023-12-07T13:18:57;4.60;99.90
10692;DHT22;5396;50.950;6.988;2023-12-07T13:21:22;4.60;99.90
10692;DHT22;5396;50.950;6.988;2023-12-07T13:23:48;4.60;99.90
10692;DHT22;5396;50.950;6.988;2023-12-07T13:26:13;4.60;99.90
10692;DHT22;5396;50.950;6.988;2023-12-07T13:28:39;4.60;99.90
10692;DHT22;5396;50.950;6.988;2023-12-07T13:31:05;4.60;99.90
10692;DHT22;5396;50.950;6.988;2023-12-07T13:33:31;4.70;99.90
10692;DHT22;5396;50.950;6.988;2023-12-07T13:35:57;4.80;99.90
10692;DHT22;5396;50.950;6.988;2023-12-07T13:38:22;5.20;99.90
10692;DHT22;5396;50.950;6.988;2023-12-07T13:40:48;6.20;99.90
10692;DHT22;5396;50.950;6.988;2023-12-07T13:43:14;7.30;99.90
10692;DHT22;5396;50.950;6.988;2023-12-07T13:45:40;8.40;99.90
10692;DHT22;5396;50.950;6.988;2023-12-07T13:48:06;8.90;99.90
10692;DHT22;5396;50.950;6.988;2023-12-07T13:50:31;9.20;99.90
10692;DHT22;5396;50.950;6.988;2023-12-07T13:52:57;9.40;99.90
10692;DHT22;5396;50.950;6.988;2023-12-07T13:55:22;9.20;99.90
10692;DHT22;5396;50.950;6.988;2023-12-07T13:57:49;9.10;99.90
10692;DHT22;5396;50.950;6.988;2023-12-07T14:00:18;9.00;99.90
10692;DHT22;5396;50.950;6.988;2023-12-07T14:02:45;8.60;99.90
10692;DHT22;5396;50.950;6.988;2023-12-07T14:05:10;8.30;99.90
10692;DHT22;5396;50.950;6.988;2023-12-07T14:07:36;7.60;99.90
10692;DHT22;5396;50.950;6.988;2023-12-07T14:10:01;7.10;99.90
10692;DHT22;5396;50.950;6.988;2023-12-07T14:12:27;6.80;99.90
10692;DHT22;5396;50.950;6.988;2023-12-07T14:14:54;6.30;99.90
10692;DHT22;5396;50.950;6.988;2023-12-07T14:17:20;5.80;99.90
10692;DHT22;5396;50.950;6.988;2023-12-07T14:19:47;5.40;99.90
10692;DHT22;5396;50.950;6.988;2023-12-07T14:22:13;5.10;99.90
10692;DHT22;5396;50.950;6.988;2023-12-07T14:24:39;4.80;99.90
10692;DHT22;5396;50.950;6.988;2023-12-07T14:27:07;4.70;99.90
10692;DHT22;5396;50.950;6.988;2023-12-07T14:29:33;4.50;99.90
10692;DHT22;5396;50.950;6.988;2023-12-07T14:31:59;4.40;99.90
10692;DHT22;5396;50.950;6.988;2023-12-07T14:34:26;4.30;99.90
10692;DHT22;5396;50.950;6.988;2023-12-07T14:36:52;4.20;99.90
10692;DHT22;5396;50.950;6.988;2023-12-07T14:39:18;4.10;99.90
10692;DHT22;5396;50.950;6.988;2023-12-07T14:41:44;4.10;99.90
10692;DHT22;5396;50.950;6.988;2023-12-07T14:44:12;4.00;99.90
10692;DHT22;5396;50.950;6.988;2023-12-07T14:46:38;4.00;99.90
10692;DHT22;5396;50.950;6.988;2023-12-07T14:49:03;3.90;99.90
10692;DHT22;5396;50.950;6.988;2023-12-07T14:51:29;3.90;99.90
10692;DHT22;5396;50.950;6.988;2023-12-07T14:53:54;3.80;99.90
10692;DHT22;5396;50.950;6.988;2023-12-07T14:56:20;3.70;99.90
10692;DHT22;5396;50.950;6.988;2023-12-07T14:58:47;3.70;99.90
10692;DHT22;5396;50.950;6.988;2023-12-07T15:01:13;3.60;99.90
10692;DHT22;5396;50.950;6.988;2023-12-07T15:03:39;3.60;99.90
10692;DHT22;5396;50.950;6.988;2023-12-07T15:06:05;3.50;99.90
10692;DHT22;5396;50.950;6.988;2023-12-07T15:08:31;3.50;99.90
10692;DHT22;5396;50.950;6.988;2023-12-07T15:10:56;3.50;99.90
10692;DHT22;5396;50.950;6.988;2023-12-07T15:13:22;3.40;99.90
10692;DHT22;5396;50.950;6.988;2023-12-07T15:15:47;3.40;99.90
10692;DHT22;5396;50.950;6.988;2023-12-07T15:18:12;3.40;99.90
10692;DHT22;5396;50.950;6.988;2023-12-07T15:20:38;3.30;99.90
10692;DHT22;5396;50.950;6.988;2023-12-07T15:23:03;3.30;99.90
10692;DHT22;5396;50.950;6.988;2023-12-07T15:25:29;3.20;99.90
10692;DHT22;5396;50.950;6.988;2023-12-07T15:27:55;3.00;99.90
10692;DHT22;5396;50.950;6.988;2023-12-07T15:30:20;3.00;99.90
10692;DHT22;5396;50.950;6.988;2023-12-07T15:32:51;2.90;99.90
10692;DHT22;5396;50.950;6.988;2023-12-07T15:35:17;2.90;99.90
10692;DHT22;5396;50.950;6.988;2023-12-07T15:37:43;2.90;99.90
10692;DHT22;5396;50.950;6.988;2023-12-07T15:40:08;2.80;99.90
10692;DHT22;5396;50.950;6.988;2023-12-07T15:42:37;2.80;99.90
10692;DHT22;5396;50.950;6.988;2023-12-07T15:45:12;2.90;99.90
10692;DHT22;5396;50.950;6.988;2023-12-07T15:47:38;2.90;99.90
10692;DHT22;5396;50.950;6.988;2023-12-07T15:50:03;2.90;99.90
10692;DHT22;5396;50.950;6.988;2023-12-07T15:52:29;2.80;99.90
10692;DHT22;5396;50.950;6.988;2023-12-07T15:54:54;2.70;99.90
10692;DHT22;5396;50.950;6.988;2023-12-07T15:57:20;2.70;99.90